Disclaimer

Please do not use the information listed here in-flight or in-navigation, as they are not provided to us by the airports but are provided by volunteers, so they might be outdated.

Search


Regions


Airport information page

No radio frequency information is available.

Airport informations:
Latitude: 35° 35' 39.60" N
Longitude: 005° 19' 12.07" W
Elevation: 10 feet - 3 meters
Operating hours: Remarks
Operating agency: Civil government, landing fees and diplomatic clearance may be required
Timezone: UTC 0
Fuel: N/A

Runway information:
06/24 - 7546 x 148 feet< - >2300 x 45 meters

Recent METARs:
GMTN 132000Z 11003KT 6000 FEW006 SCT016 16/13 Q1019 NOSIG
GMTN 132000Z 11003KT 6000 FEW006 SCT016 16/13 Q1019 NOSIG
GMTN 132100Z 04005KT 030V090 2900 FEW006 SCT016 15/13 Q1019 NOSIG

Airport on the map: